Portada
METAR-TAF:

METAR-TAF

Aeropuertos :

Farmington Regional Airport

Farmington, Misuri, Estados Unidos

latitud: 37-46N, longitud: 090-26W, altitud: 288 m

Observación

El informe se hizo hace 11 minutos, a las 00:56 UTC
Viento 5 kt del oeste
Temperatura 17°C
Humedad 32%
Presión 1019 hPa
Visibilidad: 16.1 km
Cielo despejado

METAR: KFAM 300056Z AUTO 28005KT 10SM CLR 17/00 A3009 RMK AO2 SLP197 T01720000

Hora: 20:07 (01:07 UTC)


TAF: falta

Observaciones y pronósticos meteorológicos de más de 4000 aeropuertos (mensajes METAR y TAF).

Los puntos amarillos y rojos representan las estaciones disponibles.

Ponga el ratón en el punto deseado para ver el nombre de la estación.

Haga clic para ver las observaciones y los pronósticos meteorológicos.

Para cambiar el mapa : haga clic en los botones verdes con una cruz de color negro para hacer un zoom, en el botón verde con un guión para alejar o en las flechas verdes para mapas adyacentes.


METAR-TAF: